Aérodrome :
LOGIN :

S'inscrire | Disclaimer

   EN    FR    IT 

 










Légende :    VFR   VFR Marginal   IFR   IFR Intensif   IFR Très Intensif
Visi : 
Plafond : 
>= 8 km
>= 3000ft
5 à 8 km
1000 à 3000 ft
1500m à 5 km
500 à 1000 ft
800 à 1500m
200 à 500 ft
< 800m
< 200 ft
Symboles :   Orages  Brouillard  Fortes neiges  Fortes précipitations  Vent > 20 kt
SIGMETs :   Divers  Orages  Givrage  Turbulence  Onde Orograph.  Cendres Volcan.






- Altitude de l'aérodrome : 1106 ft


LFSO - Nancy / Ochey

DERNIER METAR :
  • 220000Z AUTO 20009KT CAVOK 03/M01 Q1029

METARs EXPIRÉS :
  • 212330Z AUTO 19009KT CAVOK 03/M01 Q1029
  • 212300Z AUTO 20009KT CAVOK 03/M01 Q1029
  • 212230Z AUTO 21008KT CAVOK 03/M01 Q1030
  • 212200Z AUTO 20007KT CAVOK 03/M01 Q1030
  • 212130Z AUTO 22005KT CAVOK 04/M00 Q1030

TAF TAF LFSO
Valide du 21 à 09h jusqu'au 22 à 09h UTC


210800Z 2109/2209 22010KT 9999 FEW010
BECMG 2109/2110 BKN015
BECMG 2110/2112 BKN025
TEMPO 2208/2209 BKN008



MET'MAP, la Météo Aéronautique d'un coup d'oeil ! - Copyright ORBIFLY Décembre 2007 - Disclaimer

ORBIFLY MET'MAP TEAM :

Programmation & Développement : Alexandra Zaïnal
Sur une idée originale de : Baudouin d'Aumeries
Assistance à la programmation : Marc-Olivier Méhu
Soutien technique & logistique : Manuel Goepfert

Contact : metmap@orbifly.com




SOURCES & CREDITS :

   NOAA